Time;durP1;ratioP1;P1;durP2;ratioP2;P2;SDS_P1;SDS_P2;PMS_P1;PMS_P2;Temp;Humidity;BMP_temperature;BMP_pressure;BME280_temperature;BME280_humidity;BME280_pressure;Samples;Min_cycle;Max_cycle;Signal;HPM_P1;HPM_P2
2023/03/09 00:01:24;;;;;;;8.88;4.20;;;1.90;99.90;;;;;;4993114;28;20057;-83
2023/03/09 00:03:50;;;;;;;12.88;5.50;;;1.80;99.90;;;;;;4992908;28;20042;-82
2023/03/09 00:06:16;;;;;;;13.65;5.40;;;1.90;99.90;;;;;;4992392;28;20073;-82
2023/03/09 00:08:43;;;;;;;13.48;4.55;;;2.00;99.90;;;;;;4992508;28;20108;-83
2023/03/09 00:11:08;;;;;;;11.07;4.60;;;1.80;99.90;;;;;;4991704;28;20101;-83
2023/03/09 00:13:34;;;;;;;14.13;4.95;;;1.80;99.90;;;;;;4992725;28;20077;-83
2023/03/09 00:16:12;;;;;;;11.40;4.78;;;1.80;99.90;;;;;;4992523;28;20133;-82
2023/03/09 00:18:38;;;;;;;10.98;5.00;;;1.80;99.90;;;;;;4992698;28;20050;-83
2023/03/09 00:21:04;;;;;;;12.05;4.57;;;1.80;99.90;;;;;;4992398;28;20688;-82
2023/03/09 00:23:29;;;;;;;;;;;1.80;99.90;;;;;;4992731;28;20046;-83
2023/03/09 00:25:55;;;;;;;10.40;4.65;;;1.80;99.90;;;;;;4992266;28;19922;-78
2023/03/09 00:28:21;;;;;;;11.50;5.15;;;1.80;99.90;;;;;;4992482;28;20391;-83
2023/03/09 00:30:47;;;;;;;12.80;6.00;;;1.80;99.90;;;;;;4992328;28;20133;-83
2023/03/09 00:33:12;;;;;;;12.43;5.32;;;1.80;99.90;;;;;;4990631;28;20383;-82
2023/03/09 00:35:38;;;;;;;13.48;5.18;;;1.80;99.90;;;;;;4992298;28;20502;-82
2023/03/09 00:38:03;;;;;;;13.27;5.15;;;1.80;99.90;;;;;;4990480;28;20053;-83
2023/03/09 00:40:29;;;;;;;15.50;5.75;;;1.70;99.90;;;;;;4991660;28;20046;-81
2023/03/09 00:42:55;;;;;;;12.55;5.63;;;1.80;99.90;;;;;;4992208;28;20057;-83
2023/03/09 00:45:22;;;;;;;12.80;5.38;;;1.70;99.90;;;;;;4991708;28;20458;-82
2023/03/09 00:47:48;;;;;;;12.80;5.55;;;1.60;99.90;;;;;;4992106;28;20077;-82
2023/03/09 00:50:14;;;;;;;12.93;5.93;;;1.70;99.90;;;;;;4991635;28;20418;-81
2023/03/09 00:52:40;;;;;;;14.75;5.93;;;1.70;99.90;;;;;;4990257;28;20043;-82
2023/03/09 00:55:06;;;;;;;13.75;6.10;;;1.60;99.90;;;;;;4991389;28;20050;-81
2023/03/09 00:57:32;;;;;;;14.20;5.68;;;1.60;99.90;;;;;;4992000;28;20046;-82
2023/03/09 00:59:58;;;;;;;17.55;6.03;;;1.60;99.90;;;;;;4991068;28;20101;-82
2023/03/09 01:02:25;;;;;;;17.05;5.88;;;1.60;99.90;;;;;;4991750;28;20038;-82
2023/03/09 01:04:51;;;;;;;13.45;5.53;;;1.80;99.90;;;;;;4992429;28;20089;-82
2023/03/09 01:07:17;;;;;;;14.30;4.97;;;1.70;99.90;;;;;;4993539;28;20070;-81
2023/03/09 01:09:43;;;;;;;;;;;1.50;99.90;;;;;;4996041;28;20047;-85
2023/03/09 01:12:09;;;;;;;12.00;5.38;;;1.50;99.90;;;;;;4995642;28;19928;-82
2023/03/09 01:14:35;;;;;;;12.35;5.45;;;1.50;99.90;;;;;;4995712;28;20084;-83
2023/03/09 01:17:01;;;;;;;11.77;4.55;;;1.50;99.90;;;;;;4996097;28;20587;-82
2023/03/09 01:19:27;;;;;;;;;;;1.50;99.90;;;;;;4996094;28;20077;-81
2023/03/09 01:21:53;;;;;;;12.27;4.57;;;1.50;99.90;;;;;;4996084;28;19977;-82
2023/03/09 01:24:19;;;;;;;11.57;5.05;;;1.40;99.90;;;;;;4994965;28;20055;-81
2023/03/09 01:26:44;;;;;;;11.10;5.07;;;1.80;99.90;;;;;;4995512;28;20201;-82
2023/03/09 01:29:10;;;;;;;12.10;4.95;;;1.50;99.90;;;;;;4978188;28;20046;-82
2023/03/09 01:31:36;;;;;;;12.65;5.25;;;1.40;99.90;;;;;;4995341;28;20061;-82
2023/03/09 01:34:01;;;;;;;13.18;5.43;;;1.40;99.90;;;;;;4995383;28;20057;-82
2023/03/09 01:36:27;;;;;;;12.52;5.40;;;1.40;99.90;;;;;;4995384;28;20054;-81
2023/03/09 01:38:53;;;;;;;12.90;5.72;;;1.50;99.90;;;;;;4995159;28;20577;-82
2023/03/09 01:41:20;;;;;;;14.30;5.78;;;1.40;99.90;;;;;;4994843;28;20045;-82
2023/03/09 01:43:48;;;;;;;15.20;4.95;;;1.40;99.90;;;;;;4995461;28;20042;-82
2023/03/09 01:46:20;;;;;;;15.43;5.40;;;1.40;99.90;;;;;;4995151;28;20050;-81
2023/03/09 01:48:52;;;;;;;11.98;5.30;;;1.40;99.90;;;;;;4995279;28;20141;-81
2023/03/09 01:51:19;;;;;;;10.93;5.32;;;1.30;99.90;;;;;;4995128;28;20522;-82
2023/03/09 01:53:46;;;;;;;14.30;5.80;;;1.40;99.90;;;;;;4993620;28;20432;-82
2023/03/09 01:56:14;;;;;;;13.98;5.50;;;1.40;99.90;;;;;;4994551;28;20050;-82
2023/03/09 01:58:40;;;;;;;13.93;5.80;;;1.30;99.90;;;;;;4995267;28;20089;-81
2023/03/09 02:01:06;;;;;;;11.88;5.60;;;1.30;99.90;;;;;;4995510;28;20108;-82
2023/03/09 02:03:36;;;;;;;13.55;5.65;;;1.30;99.90;;;;;;4995011;28;20544;-81
2023/03/09 02:06:11;;;;;;;14.27;6.22;;;1.30;99.90;;;;;;4995263;28;20133;-82
2023/03/09 02:08:43;;;;;;;10.70;4.57;;;1.30;99.90;;;;;;4994675;28;20049;-81
2023/03/09 02:11:12;;;;;;;13.70;5.70;;;1.30;99.90;;;;;;4994469;28;20108;-78
2023/03/09 02:13:48;;;;;;;12.38;5.25;;;1.30;99.90;;;;;;4995102;28;20184;-82
2023/03/09 02:16:14;;;;;;;15.67;6.40;;;1.30;99.90;;;;;;4994854;28;20157;-82
2023/03/09 02:18:39;;;;;;;12.65;5.60;;;1.30;99.90;;;;;;4994013;28;20780;-82
2023/03/09 02:21:20;;;;;;;12.75;5.45;;;1.20;99.90;;;;;;4995130;28;20476;-82
2023/03/09 02:24:14;;;;;;;12.68;5.28;;;1.20;99.90;;;;;;4994633;28;20046;-83
2023/03/09 02:27:10;;;;;;;13.90;5.63;;;1.20;99.90;;;;;;4994434;28;20042;-81
2023/03/09 02:29:35;;;;;;;11.10;4.57;;;1.20;99.90;;;;;;4980038;28;20180;-80
2023/03/09 02:32:01;;;;;;;17.25;6.38;;;1.20;99.90;;;;;;4994729;28;20162;-82
2023/03/09 02:34:27;;;;;;;13.85;5.47;;;1.50;99.90;;;;;;4994195;28;20555;-82
2023/03/09 02:36:52;;;;;;;14.57;5.38;;;1.20;99.90;;;;;;4994836;28;20077;-82
2023/03/09 02:39:44;;;;;;;12.95;4.80;;;1.20;99.90;;;;;;4993971;28;20050;-81
2023/03/09 02:42:10;;;;;;;12.30;4.90;;;1.20;99.90;;;;;;4994761;28;20038;-78
2023/03/09 02:44:36;;;;;;;12.77;5.45;;;1.70;99.90;;;;;;4993525;28;20050;-81
2023/03/09 02:47:08;;;;;;;13.55;5.53;;;1.30;99.90;;;;;;4993305;28;20042;-81
2023/03/09 02:49:34;;;;;;;15.15;5.25;;;1.30;99.90;;;;;;4993998;28;20491;-82
2023/03/09 02:52:01;;;;;;;13.57;5.68;;;1.30;99.90;;;;;;4993261;28;20049;-81
2023/03/09 02:54:27;;;;;;;15.10;7.18;;;1.20;99.90;;;;;;4993220;28;20043;-82
2023/03/09 02:56:52;;;;;;;12.52;5.72;;;1.30;99.90;;;;;;4994371;28;20471;-81
2023/03/09 02:59:18;;;;;;;11.23;5.32;;;1.80;99.90;;;;;;4994054;28;20053;-82
2023/03/09 03:01:44;;;;;;;13.32;6.00;;;1.30;99.90;;;;;;4994144;28;20507;-81
2023/03/09 03:04:09;;;;;;;15.23;5.57;;;1.80;99.90;;;;;;4994304;28;20134;-81
2023/03/09 03:06:35;;;;;;;13.45;6.25;;;1.30;99.90;;;;;;4993490;28;20054;-81
2023/03/09 03:09:00;;;;;;;15.90;5.18;;;1.40;99.90;;;;;;4992593;28;20054;-82
2023/03/09 03:11:26;;;;;;;17.33;5.70;;;1.80;99.90;;;;;;4993439;28;20046;-81
2023/03/09 03:13:54;;;;;;;15.13;6.35;;;1.30;99.90;;;;;;4994045;28;20050;-81
2023/03/09 03:16:20;;;;;;;16.38;5.95;;;1.60;99.90;;;;;;4993753;28;20060;-81
2023/03/09 03:18:46;;;;;;;14.35;5.88;;;1.30;99.90;;;;;;4994047;28;20484;-82
2023/03/09 03:21:12;;;;;;;14.05;5.60;;;1.30;99.90;;;;;;4993968;28;20507;-81
2023/03/09 03:23:37;;;;;;;13.98;5.65;;;1.30;99.90;;;;;;4992651;28;20048;-81
2023/03/09 03:26:07;;;;;;;15.23;5.78;;;1.80;99.90;;;;;;4993573;28;20057;-81
2023/03/09 03:28:33;;;;;;;15.43;6.57;;;1.40;99.90;;;;;;4993611;28;20165;-82
2023/03/09 03:30:59;;;;;;;15.27;6.47;;;1.40;99.90;;;;;;4993664;28;20472;-81
2023/03/09 03:33:24;;;;;;;17.00;6.63;;;1.30;99.90;;;;;;4993294;28;20042;-81
2023/03/09 03:35:50;;;;;;;18.55;7.28;;;1.30;99.90;;;;;;4993714;28;20456;-80
2023/03/09 03:38:16;;;;;;;14.00;6.57;;;1.30;99.90;;;;;;4992762;28;20048;-81
2023/03/09 03:40:41;;;;;;;15.60;6.20;;;1.30;99.90;;;;;;4993242;28;20046;-82
2023/03/09 03:43:07;;;;;;;17.58;6.40;;;1.30;99.90;;;;;;4992412;28;20542;-80
2023/03/09 03:45:33;;;;;;;15.68;6.72;;;1.60;99.90;;;;;;4993092;28;20050;-82
2023/03/09 03:47:59;;;;;;;17.67;7.18;;;1.30;99.90;;;;;;4993324;28;20392;-82
2023/03/09 03:50:24;;;;;;;18.00;7.20;;;1.30;99.90;;;;;;4992830;28;20145;-82
2023/03/09 03:52:50;;;;;;;18.05;7.00;;;1.30;99.90;;;;;;4992570;28;20108;-82
2023/03/09 03:55:16;;;;;;;18.40;7.13;;;1.30;99.90;;;;;;4992493;28;20061;-77
2023/03/09 03:57:41;;;;;;;18.20;7.25;;;1.30;99.90;;;;;;4993032;28;20635;-82
2023/03/09 04:00:10;;;;;;;17.00;6.85;;;1.30;99.90;;;;;;4993308;28;20042;-82
2023/03/09 04:02:37;;;;;;;19.45;7.25;;;1.30;99.90;;;;;;4992712;28;20074;-81
2023/03/09 04:05:03;;;;;;;15.55;6.75;;;1.30;99.90;;;;;;4992784;28;20042;-82
2023/03/09 04:07:29;;;;;;;18.02;7.35;;;1.30;99.90;;;;;;4990628;28;20452;-80
2023/03/09 04:09:54;;;;;;;17.27;7.35;;;1.30;99.90;;;;;;4992630;28;20153;-82
2023/03/09 04:12:20;;;;;;;19.77;6.88;;;1.30;99.90;;;;;;4992519;28;20527;-81
2023/03/09 04:14:46;;;;;;;18.27;7.65;;;1.30;99.90;;;;;;4975957;28;20046;-82
2023/03/09 04:17:11;;;;;;;17.15;6.93;;;1.30;99.90;;;;;;4993061;28;20406;-80
2023/03/09 04:19:37;;;;;;;17.05;7.32;;;1.40;99.90;;;;;;4992624;28;20125;-81
2023/03/09 04:22:03;;;;;;;16.80;7.32;;;1.40;99.90;;;;;;4992588;28;20479;-81
2023/03/09 04:24:29;;;;;;;16.73;7.20;;;1.40;99.90;;;;;;4991578;28;20057;-82
2023/03/09 04:26:55;;;;;;;15.40;6.65;;;1.70;99.90;;;;;;4992483;28;20054;-81
2023/03/09 04:29:21;;;;;;;15.50;6.25;;;1.40;99.90;;;;;;4991162;28;20113;-80
2023/03/09 04:31:47;;;;;;;18.45;6.90;;;1.50;99.90;;;;;;4992998;28;20101;-81
2023/03/09 04:34:13;;;;;;;16.67;7.10;;;1.40;99.90;;;;;;4991261;28;20050;-82
2023/03/09 04:36:39;;;;;;;16.15;6.28;;;1.40;99.90;;;;;;4992298;28;20046;-81
2023/03/09 04:39:04;;;;;;;17.17;7.25;;;1.50;99.90;;;;;;4992111;28;20141;-81
2023/03/09 04:41:31;;;;;;;16.30;6.72;;;1.40;99.90;;;;;;4991430;28;20046;-82
2023/03/09 04:43:57;;;;;;;15.93;6.47;;;1.50;99.90;;;;;;4991472;28;20050;-81
2023/03/09 04:46:22;;;;;;;14.57;6.38;;;1.40;99.90;;;;;;4991948;28;20051;-81
2023/03/09 04:48:48;;;;;;;17.15;6.68;;;1.40;99.90;;;;;;4992426;28;20069;-82
2023/03/09 04:51:14;;;;;;;15.82;6.28;;;1.50;99.90;;;;;;4992574;28;20136;-82
2023/03/09 04:53:40;;;;;;;15.95;7.03;;;1.40;99.90;;;;;;4991609;28;20057;-81
2023/03/09 04:56:06;;;;;;;14.23;6.40;;;1.60;99.90;;;;;;4992014;28;20046;-82
2023/03/09 04:58:32;;;;;;;14.30;6.28;;;1.40;99.90;;;;;;4992037;28;20133;-82
2023/03/09 05:01:00;;;;;;;15.88;6.25;;;1.60;99.90;;;;;;4992194;28;20086;-82
2023/03/09 05:03:27;;;;;;;16.42;7.35;;;1.40;99.90;;;;;;4991760;28;20068;-81
2023/03/09 05:05:53;;;;;;;15.15;7.20;;;1.30;99.90;;;;;;4992083;28;20133;-82
2023/03/09 05:08:19;;;;;;;14.88;5.93;;;1.40;99.90;;;;;;4991361;28;20125;-82
2023/03/09 05:10:44;;;;;;;15.50;6.22;;;1.40;99.90;;;;;;4991197;28;20129;-82
2023/03/09 05:13:10;;;;;;;15.38;5.97;;;1.40;99.90;;;;;;4992129;28;20484;-82
2023/03/09 05:15:40;;;;;;;16.17;5.30;;;1.40;99.90;;;;;;4991673;28;20109;-82
2023/03/09 05:18:06;;;;;;;17.25;6.50;;;1.30;99.90;;;;;;4991859;28;20522;-81
2023/03/09 05:20:32;;;;;;;16.33;5.88;;;1.30;99.90;;;;;;4991453;28;20528;-81
2023/03/09 05:22:59;;;;;;;14.35;6.03;;;1.30;99.90;;;;;;4991724;28;20385;-81
2023/03/09 05:25:25;;;;;;;14.70;6.57;;;1.30;99.90;;;;;;4991452;28;20050;-77
2023/03/09 05:27:51;;;;;;;15.68;5.95;;;1.30;99.90;;;;;;4992103;28;20046;-81
2023/03/09 05:30:18;;;;;;;14.85;6.25;;;1.30;99.90;;;;;;4990613;28;20065;-81
2023/03/09 05:32:45;;;;;;;14.98;5.93;;;1.30;99.90;;;;;;4991520;28;20235;-81
2023/03/09 05:35:10;;;;;;;16.50;6.72;;;1.70;99.90;;;;;;4992073;28;20054;-81
2023/03/09 05:37:36;;;;;;;15.82;6.88;;;1.20;99.90;;;;;;4991169;28;20488;-82
2023/03/09 05:40:04;;;;;;;14.30;6.03;;;1.20;99.90;;;;;;4991541;28;20112;-82
2023/03/09 05:42:31;;;;;;;17.52;7.03;;;1.30;99.90;;;;;;4990621;28;20148;-81
2023/03/09 05:44:57;;;;;;;15.88;7.22;;;1.30;99.90;;;;;;4992127;28;20073;-82
2023/03/09 05:47:23;;;;;;;18.73;7.10;;;1.20;99.90;;;;;;4991818;28;20488;-81
2023/03/09 05:49:49;;;;;;;17.48;5.85;;;1.30;99.90;;;;;;4991002;28;20529;-81
2023/03/09 05:52:15;;;;;;;16.10;7.38;;;1.30;99.90;;;;;;4974137;28;20463;-80
2023/03/09 05:54:41;;;;;;;17.73;7.32;;;1.30;99.90;;;;;;4993646;28;20058;-81
2023/03/09 05:57:07;;;;;;;16.10;7.25;;;1.30;99.90;;;;;;4995453;28;20054;-82
2023/03/09 05:59:32;;;;;;;17.25;7.55;;;1.30;99.90;;;;;;4994203;28;20109;-82
2023/03/09 06:01:58;;;;;;;18.60;7.32;;;1.30;99.90;;;;;;4994604;28;20080;-81
2023/03/09 06:04:24;;;;;;;15.70;6.85;;;1.30;99.90;;;;;;4995028;28;20042;-81
2023/03/09 06:06:49;;;;;;;19.00;7.65;;;1.30;99.90;;;;;;4994963;28;20089;-80
2023/03/09 06:09:15;;;;;;;17.23;7.43;;;1.40;99.90;;;;;;4994491;28;20451;-81
2023/03/09 06:11:41;;;;;;;17.08;6.72;;;1.40;99.90;;;;;;4994239;28;20050;-81
2023/03/09 06:14:08;;;;;;;26.35;8.32;;;1.50;99.90;;;;;;4993923;28;20069;-81
2023/03/09 06:16:34;;;;;;;20.02;8.18;;;1.40;99.90;;;;;;4994865;28;20050;-81
2023/03/09 06:18:59;;;;;;;18.08;8.07;;;1.40;99.90;;;;;;4995067;28;20047;-81
2023/03/09 06:21:25;;;;;;;19.52;7.60;;;1.40;99.90;;;;;;4994051;28;20050;-80
2023/03/09 06:23:54;;;;;;;19.73;7.82;;;1.50;99.90;;;;;;4994281;28;20046;-81
2023/03/09 06:26:21;;;;;;;18.13;7.85;;;1.50;99.90;;;;;;4994692;28;20072;-82
2023/03/09 06:28:47;;;;;;;20.20;7.70;;;2.10;99.90;;;;;;4994694;28;20042;-82
2023/03/09 06:31:14;;;;;;;20.92;8.20;;;1.50;99.90;;;;;;4993398;28;20737;-81
2023/03/09 06:33:42;;;;;;;19.02;7.78;;;1.70;99.90;;;;;;4993059;28;20059;-80
2023/03/09 06:36:12;;;;;;;21.13;8.15;;;1.50;99.90;;;;;;4994760;28;20069;-82
2023/03/09 06:38:38;;;;;;;16.83;7.47;;;1.50;99.90;;;;;;4994018;28;20093;-81
2023/03/09 06:41:04;;;;;;;;;;;1.50;99.90;;;;;;4994682;28;20073;-80
2023/03/09 06:43:30;;;;;;;21.40;7.68;;;1.50;99.90;;;;;;4994347;28;20356;-78
2023/03/09 06:45:55;;;;;;;19.65;7.68;;;1.50;99.90;;;;;;4994770;28;20086;-82
2023/03/09 06:48:21;;;;;;;20.33;7.25;;;1.90;99.90;;;;;;4994539;28;20491;-82
2023/03/09 06:50:48;;;;;;;18.77;7.63;;;1.50;99.90;;;;;;4994031;28;20096;-82
2023/03/09 06:53:15;;;;;;;17.70;7.85;;;1.60;99.90;;;;;;4993782;28;20094;-82
2023/03/09 06:55:41;;;;;;;19.33;7.82;;;1.60;99.90;;;;;;4992589;28;20071;-81
2023/03/09 06:58:07;;;;;;;20.55;8.10;;;1.60;99.90;;;;;;4993165;28;20165;-81
2023/03/09 07:00:37;;;;;;;18.88;7.82;;;1.60;99.90;;;;;;4993893;28;20499;-81
2023/03/09 07:03:06;;;;;;;16.73;7.53;;;1.80;99.90;;;;;;4994093;28;20048;-81
2023/03/09 07:05:32;;;;;;;20.77;8.38;;;1.70;99.90;;;;;;4993723;28;20064;-78
2023/03/09 07:07:58;;;;;;;;;;;2.20;99.90;;;;;;4993221;28;20566;-82
2023/03/09 07:10:23;;;;;;;16.70;6.68;;;1.70;99.90;;;;;;4993831;28;19950;-81
2023/03/09 07:12:49;;;;;;;21.13;7.60;;;1.70;99.90;;;;;;4993707;28;20046;-81
2023/03/09 07:15:15;;;;;;;18.10;8.00;;;1.70;99.90;;;;;;4994066;28;20050;-82
2023/03/09 07:17:42;;;;;;;;;;;1.70;99.90;;;;;;4993907;28;20050;-81
2023/03/09 07:20:09;;;;;;;16.80;7.07;;;1.70;99.90;;;;;;4993043;28;19929;-81
2023/03/09 07:22:35;;;;;;;18.90;7.20;;;1.80;99.90;;;;;;4992984;28;20081;-80
2023/03/09 07:25:01;;;;;;;18.50;7.53;;;1.90;99.90;;;;;;4992198;28;20081;-82
2023/03/09 07:27:27;;;;;;;19.38;7.53;;;2.40;99.90;;;;;;4992983;28;20046;-82
2023/03/09 07:29:52;;;;;;;20.75;7.55;;;1.90;99.90;;;;;;4993300;28;20053;-81
2023/03/09 07:32:18;;;;;;;18.52;8.40;;;2.00;99.90;;;;;;4993332;28;20580;-82
2023/03/09 07:34:44;;;;;;;19.50;8.68;;;2.00;99.90;;;;;;4992357;28;20047;-78
2023/03/09 07:37:10;;;;;;;19.48;8.32;;;2.10;99.90;;;;;;4992216;28;20050;-75
2023/03/09 07:39:36;;;;;;;;;;;2.00;99.90;;;;;;4992887;28;20050;-80
2023/03/09 07:42:01;;;;;;;20.38;7.75;;;2.00;99.90;;;;;;4993411;28;19984;-81
2023/03/09 07:44:28;;;;;;;17.83;7.25;;;2.10;99.90;;;;;;4993529;28;20401;-83
2023/03/09 07:46:54;;;;;;;19.35;7.60;;;2.20;99.90;;;;;;4992851;28;20046;-78
2023/03/09 07:49:19;;;;;;;20.17;8.43;;;2.00;99.90;;;;;;4991555;28;20050;-78
2023/03/09 07:51:45;;;;;;;19.98;9.23;;;2.00;99.90;;;;;;4992878;28;20050;-79
2023/03/09 07:54:11;;;;;;;20.88;8.18;;;2.00;99.90;;;;;;4992426;28;20097;-79
2023/03/09 07:56:37;;;;;;;21.45;8.63;;;2.00;99.90;;;;;;4992712;28;20043;-79
2023/03/09 07:59:03;;;;;;;36.97;8.02;;;2.10;99.90;;;;;;4992693;28;20053;-79
2023/03/09 08:01:29;;;;;;;20.10;8.50;;;2.10;99.90;;;;;;4993112;28;20042;-79
2023/03/09 08:03:55;;;;;;;19.27;7.78;;;2.10;99.90;;;;;;4992732;28;20042;-79
2023/03/09 08:06:22;;;;;;;20.20;8.20;;;2.10;99.90;;;;;;4992719;28;20396;-79
2023/03/09 08:08:48;;;;;;;20.02;8.68;;;2.10;99.90;;;;;;4992261;28;20138;-79
2023/03/09 08:11:14;;;;;;;17.88;7.80;;;2.20;99.90;;;;;;4992575;28;20046;-79
2023/03/09 08:13:40;;;;;;;21.73;8.27;;;2.20;99.90;;;;;;4992763;28;20088;-80
2023/03/09 08:16:08;;;;;;;20.10;8.15;;;2.60;99.90;;;;;;4992322;28;20104;-79
2023/03/09 08:18:34;;;;;;;19.92;8.25;;;2.70;99.90;;;;;;4992571;28;20046;-79
2023/03/09 08:21:07;;;;;;;;;;;2.30;99.90;;;;;;4992805;28;20131;-79
2023/03/09 08:23:35;;;;;;;20.27;7.95;;;2.30;99.90;;;;;;4992425;28;19921;-79
2023/03/09 08:26:01;;;;;;;18.60;7.75;;;2.30;99.90;;;;;;4992136;28;20196;-80
2023/03/09 08:28:27;;;;;;;19.60;7.85;;;2.30;99.90;;;;;;4992744;28;20132;-79
2023/03/09 08:30:52;;;;;;;20.20;8.60;;;2.30;99.90;;;;;;4990898;28;20130;-69
2023/03/09 08:33:18;;;;;;;19.15;8.00;;;2.30;99.90;;;;;;4992380;28;20490;-71
2023/03/09 08:35:44;;;;;;;17.95;7.93;;;2.40;99.90;;;;;;4992246;28;20042;-72
2023/03/09 08:38:09;;;;;;;20.33;8.32;;;2.40;99.90;;;;;;4991757;28;20057;-83
2023/03/09 08:40:37;;;;;;;23.08;8.68;;;3.10;99.90;;;;;;4992162;28;20042;-82
2023/03/09 08:43:03;;;;;;;18.35;7.72;;;2.50;99.90;;;;;;4992227;28;20030;-82
2023/03/09 08:45:28;;;;;;;21.02;9.02;;;2.40;99.90;;;;;;4992434;28;20046;-77
2023/03/09 08:47:54;;;;;;;19.30;7.82;;;2.50;99.90;;;;;;4990758;28;20046;-81
2023/03/09 08:50:20;;;;;;;18.95;7.70;;;2.50;99.90;;;;;;4991916;28;20054;-81
2023/03/09 08:52:46;;;;;;;22.38;8.63;;;3.00;99.90;;;;;;4991387;28;20513;-79
2023/03/09 08:55:11;;;;;;;17.50;7.82;;;2.60;99.90;;;;;;4990829;28;20050;-81
2023/03/09 08:57:37;;;;;;;22.42;9.00;;;3.20;99.90;;;;;;4992379;28;20138;-80
2023/03/09 09:00:08;;;;;;;20.77;8.43;;;2.60;99.90;;;;;;4991523;28;20487;-80
2023/03/09 09:02:34;;;;;;;18.85;7.95;;;2.60;99.90;;;;;;4992040;28;20038;-80
2023/03/09 09:05:00;;;;;;;17.75;7.35;;;2.70;99.90;;;;;;4991016;28;20549;-79
2023/03/09 09:07:25;;;;;;;20.25;8.05;;;2.80;99.90;;;;;;4991425;28;20053;-82
2023/03/09 09:09:51;;;;;;;18.63;7.82;;;3.00;99.90;;;;;;4990866;28;20050;-81
2023/03/09 09:12:17;;;;;;;19.33;8.02;;;3.10;99.90;;;;;;4991762;28;20042;-82
2023/03/09 09:14:42;;;;;;;19.23;7.93;;;2.80;99.90;;;;;;4990385;28;20105;-82
2023/03/09 09:17:08;;;;;;;21.45;7.88;;;2.90;99.90;;;;;;4990528;28;20133;-81
2023/03/09 09:19:38;;;;;;;18.00;7.85;;;2.90;99.90;;;;;;4990432;28;20488;-78
2023/03/09 09:22:04;;;;;;;19.83;7.57;;;2.90;99.90;;;;;;4990998;28;20446;-83
2023/03/09 09:24:32;;;;;;;;;;;3.70;99.90;;;;;;4990874;28;20039;-81
2023/03/09 09:26:59;;;;;;;19.77;8.32;;;3.00;99.90;;;;;;4990706;28;20489;-83
2023/03/09 09:29:26;;;;;;;18.73;7.70;;;3.00;99.90;;;;;;4995368;28;20057;-82
2023/03/09 09:31:52;;;;;;;19.55;8.00;;;3.10;99.90;;;;;;4994651;28;20389;-80
2023/03/09 09:34:22;;;;;;;18.85;8.35;;;3.10;99.90;;;;;;4995051;28;20626;-81
2023/03/09 09:36:48;;;;;;;19.08;8.35;;;3.10;99.90;;;;;;4995681;28;20089;-78
2023/03/09 09:39:14;;;;;;;22.05;8.90;;;3.10;99.90;;;;;;4994494;28;20143;-85
2023/03/09 09:41:49;;;;;;;20.17;8.88;;;3.20;99.90;;;;;;4995199;28;20129;-80
2023/03/09 09:44:20;;;;;;;18.33;7.47;;;3.20;99.90;;;;;;4995547;28;20034;-90
2023/03/09 09:46:48;;;;;;;19.65;7.97;;;3.20;99.90;;;;;;4994609;28;20057;-79
2023/03/09 09:49:24;;;;;;;20.08;8.40;;;3.30;99.90;;;;;;4994773;28;20149;-80
2023/03/09 09:52:24;;;;;;;20.38;7.80;;;3.20;99.90;;;;;;4995389;28;20050;-78
2023/03/09 09:55:09;;;;;;;20.55;8.73;;;3.20;99.90;;;;;;4995175;28;20049;-78
2023/03/09 09:57:43;;;;;;;17.42;7.75;;;3.30;99.90;;;;;;4995608;28;20092;-80
2023/03/09 10:00:21;;;;;;;19.83;8.50;;;3.20;99.90;;;;;;4994789;28;20116;-81
2023/03/09 10:03:00;;;;;;;18.60;7.40;;;3.20;99.90;;;;;;4994338;28;20423;-80
2023/03/09 10:05:25;;;;;;;18.73;8.07;;;3.30;99.90;;;;;;4995424;28;20380;-80
2023/03/09 10:07:51;;;;;;;18.80;8.30;;;3.20;99.90;;;;;;4994740;28;20085;-79
2023/03/09 10:10:24;;;;;;;18.70;8.18;;;3.30;99.90;;;;;;4994859;28;20092;-80
2023/03/09 10:12:50;;;;;;;19.83;8.73;;;3.20;99.90;;;;;;4995284;28;20043;-80
2023/03/09 10:15:34;;;;;;;20.90;9.20;;;3.20;99.90;;;;;;4994864;28;20054;-81
2023/03/09 10:18:08;;;;;;;20.70;8.52;;;3.20;99.90;;;;;;4994785;28;20046;-80
2023/03/09 10:20:42;;;;;;;19.50;7.97;;;3.30;99.90;;;;;;4995025;28;20050;-80
2023/03/09 10:23:34;;;;;;;17.17;7.00;;;3.20;99.90;;;;;;4993923;28;20484;-80
2023/03/09 10:26:21;;;;;;;18.98;7.85;;;3.30;99.90;;;;;;4991371;28;20058;-78
2023/03/09 10:28:48;;;;;;;;;;;3.20;99.90;;;;;;4995118;28;20050;-78
2023/03/09 10:31:22;;;;;;;18.67;8.05;;;3.30;99.90;;;;;;4994477;28;20059;-80
2023/03/09 10:33:53;;;;;;;19.88;8.13;;;3.30;99.90;;;;;;4994737;28;20045;-82
2023/03/09 10:36:28;;;;;;;19.23;7.43;;;3.30;99.90;;;;;;4994488;28;20057;-80
2023/03/09 10:38:56;;;;;;;18.30;8.10;;;3.30;99.90;;;;;;4993467;28;20043;-79
2023/03/09 10:41:22;;;;;;;21.25;8.70;;;3.40;99.90;;;;;;4994228;28;20060;-80
2023/03/09 10:43:49;;;;;;;18.30;8.25;;;3.40;99.90;;;;;;4994459;28;20053;-84
2023/03/09 10:46:25;;;;;;;19.20;8.05;;;3.40;99.90;;;;;;4994063;28;20050;-80
2023/03/09 10:49:11;;;;;;;22.42;8.30;;;3.40;99.90;;;;;;4994599;28;20527;-80
2023/03/09 10:51:40;;;;;;;20.38;8.07;;;3.30;99.90;;;;;;4994027;28;20500;-79
2023/03/09 10:54:24;;;;;;;19.05;7.40;;;3.40;99.90;;;;;;4992883;28;20484;-79
2023/03/09 10:56:51;;;;;;;20.73;7.43;;;3.40;99.90;;;;;;4993823;28;20047;-79
2023/03/09 10:59:25;;;;;;;19.20;7.65;;;3.50;99.90;;;;;;4993840;28;20198;-80
2023/03/09 11:01:56;;;;;;;18.42;7.88;;;3.50;99.90;;;;;;4994010;28;20498;-81
2023/03/09 11:04:22;;;;;;;19.77;8.07;;;3.50;99.90;;;;;;4992573;28;20623;-80
2023/03/09 11:06:51;;;;;;;18.95;7.85;;;3.50;99.90;;;;;;4993318;28;20054;-80
2023/03/09 11:09:44;;;;;;;19.52;8.02;;;3.60;99.90;;;;;;4992835;28;20050;-80
2023/03/09 11:12:16;;;;;;;20.52;8.10;;;3.60;99.90;;;;;;4992995;28;20046;-80
2023/03/09 11:14:46;;;;;;;20.33;8.65;;;3.60;99.90;;;;;;4993328;28;20137;-80
2023/03/09 11:17:37;;;;;;;19.33;7.88;;;3.70;99.90;;;;;;4992408;28;20148;-82
2023/03/09 11:20:12;;;;;;;19.05;8.82;;;3.70;99.90;;;;;;4992682;28;20403;-81
2023/03/09 11:23:08;;;;;;;16.58;7.30;;;3.80;99.90;;;;;;4992895;28;20042;-79
2023/03/09 11:25:55;;;;;;;17.55;7.55;;;3.80;99.90;;;;;;4992476;28;20050;-79
2023/03/09 11:28:44;;;;;;;20.60;8.27;;;3.90;99.90;;;;;;4992729;28;20114;-80
2023/03/09 11:31:12;;;;;;;17.75;8.20;;;3.90;99.90;;;;;;4992345;28;20462;-79
2023/03/09 11:33:38;;;;;;;20.60;8.60;;;4.00;99.90;;;;;;4991648;28;20074;-79
2023/03/09 11:36:05;;;;;;;21.30;8.82;;;4.00;99.90;;;;;;4992488;28;20503;-78
2023/03/09 11:38:32;;;;;;;20.17;8.13;;;4.00;99.90;;;;;;4991886;28;20069;-79
2023/03/09 11:41:12;;;;;;;18.98;7.85;;;4.00;99.90;;;;;;4992499;28;20129;-81
2023/03/09 11:43:41;;;;;;;19.58;8.02;;;4.20;99.90;;;;;;4992705;28;20041;-82
2023/03/09 11:46:14;;;;;;;20.35;7.80;;;4.10;99.90;;;;;;4992335;28;20539;-80
2023/03/09 11:49:07;;;;;;;19.88;7.93;;;4.00;99.90;;;;;;4975649;28;20061;-80
2023/03/09 11:51:47;;;;;;;18.75;7.97;;;3.90;99.90;;;;;;4987270;28;20058;-80
2023/03/09 11:54:29;;;;;;;17.83;7.80;;;3.90;99.90;;;;;;4991211;28;20049;-81
2023/03/09 11:56:55;;;;;;;19.77;8.50;;;3.80;99.90;;;;;;4992560;28;20134;-81
2023/03/09 11:59:21;;;;;;;;;;;4.00;99.90;;;;;;4992513;28;20054;-82
2023/03/09 12:02:12;;;;;;;20.75;8.68;;;3.90;99.90;;;;;;4992273;28;20326;-80
2023/03/09 12:04:38;;;;;;;19.65;8.75;;;3.90;99.90;;;;;;4991876;28;20054;-79
2023/03/09 12:07:21;;;;;;;19.42;8.45;;;3.90;99.90;;;;;;4992579;28;20202;-80
2023/03/09 12:09:57;;;;;;;18.45;7.60;;;3.90;99.90;;;;;;4992056;28;20046;-82
2023/03/09 12:12:25;;;;;;;18.10;7.73;;;3.90;99.90;;;;;;4992590;28;20046;-79
2023/03/09 12:15:07;;;;;;;17.33;7.65;;;3.90;99.90;;;;;;4992902;28;20061;-80
2023/03/09 12:17:41;;;;;;;19.35;8.27;;;3.90;99.90;;;;;;4992876;28;20057;-80
2023/03/09 12:20:25;;;;;;;17.02;7.57;;;3.90;99.90;;;;;;4992536;28;20121;-80
2023/03/09 12:22:51;;;;;;;19.35;7.57;;;3.90;99.90;;;;;;4990919;28;20046;-82
2023/03/09 12:25:19;;;;;;;18.95;7.90;;;3.90;99.90;;;;;;4990901;28;20072;-81
2023/03/09 12:27:57;;;;;;;18.52;7.55;;;3.90;99.90;;;;;;4992737;28;20053;-79
2023/03/09 12:30:30;;;;;;;19.25;7.50;;;4.10;99.90;;;;;;4992116;28;20050;-83
2023/03/09 12:33:01;;;;;;;20.42;8.07;;;4.00;99.90;;;;;;4992432;28;20038;-80
2023/03/09 12:35:26;;;;;;;23.17;8.00;;;4.80;99.90;;;;;;4991176;28;20058;-80
2023/03/09 12:38:03;;;;;;;19.63;7.85;;;4.00;99.90;;;;;;4992126;28;20042;-80
2023/03/09 12:40:37;;;;;;;22.90;8.90;;;4.00;99.90;;;;;;4991806;28;20072;-79
2023/03/09 12:43:15;;;;;;;18.63;7.85;;;4.00;99.90;;;;;;4991249;28;20046;-80
2023/03/09 12:45:49;;;;;;;19.10;7.22;;;4.00;99.90;;;;;;4992554;28;20053;-83
2023/03/09 12:48:24;;;;;;;19.50;7.82;;;4.10;99.90;;;;;;4992011;28;20384;-80
2023/03/09 12:51:05;;;;;;;20.15;8.63;;;4.10;99.90;;;;;;4992145;28;20062;-82
2023/03/09 12:53:31;;;;;;;20.52;7.70;;;4.20;99.90;;;;;;4991406;28;20039;-81
2023/03/09 12:56:03;;;;;;;18.20;7.68;;;4.20;99.90;;;;;;4991639;28;20618;-81
2023/03/09 12:58:36;;;;;;;22.50;8.68;;;4.10;99.90;;;;;;4991846;28;20085;-84